Time;durP1;ratioP1;P1;durP2;ratioP2;P2;SDS_P1;SDS_P2;PMS_P1;PMS_P2;Temp;Humidity;BMP_temperature;BMP_pressure;BME280_temperature;BME280_humidity;BME280_pressure;Samples;Min_cycle;Max_cycle;Signal;HPM_P1;HPM_P2
2023/05/23 00:01:36;;;;;;;42.35;2.35;;;;;;;22.99;43.40;99020.34;7312524;19;129324;-39
2023/05/23 00:04:05;;;;;;;45.25;2.60;;;;;;;22.89;43.85;98999.50;7311976;19;130506;-38
2023/05/23 00:06:31;;;;;;;9.57;0.80;;;;;;;23.03;44.01;99013.75;7309799;19;130196;-38
2023/05/23 00:08:56;;;;;;;25.52;1.38;;;;;;;23.02;43.21;99017.38;7311722;19;128991;-38
2023/05/23 00:11:26;;;;;;;41.63;2.28;;;;;;;23.00;43.59;99006.22;7311786;19;128834;-38
2023/05/23 00:13:52;;;;;;;89.63;4.95;;;;;;;22.90;43.62;98990.66;7311736;19;130385;-38
2023/05/23 00:16:18;;;;;;;6.25;0.52;;;;;;;23.00;43.63;99003.59;7310093;19;130304;-37
2023/05/23 00:18:44;;;;;;;23.60;1.40;;;;;;;22.99;43.62;99001.97;7312480;19;129540;-37
2023/05/23 00:21:13;;;;;;;40.30;2.30;;;;;;;23.02;43.32;98999.81;7308961;19;128950;-38
2023/05/23 00:23:41;;;;;;;40.42;2.10;;;;;;;23.00;43.86;99003.59;7311703;19;130228;-39
2023/05/23 00:26:07;;;;;;;27.77;1.80;;;;;;;23.03;43.87;99005.91;7309097;19;130570;-39
2023/05/23 00:28:32;;;;;;;47.27;2.60;;;;;;;23.01;43.87;99005.25;7311091;19;129341;-37
2023/05/23 00:30:57;;;;;;;23.57;1.23;;;;;;;23.01;43.94;99006.06;7311562;19;129777;-39
2023/05/23 00:33:23;;;;;;;21.20;1.20;;;;;;;23.00;44.03;99011.47;7311800;19;129341;-38
2023/05/23 00:35:48;;;;;;;33.92;1.83;;;;;;;23.02;43.13;99012.13;7308861;19;129163;-37
2023/05/23 00:38:14;;;;;;;27.85;1.52;;;;;;;23.03;43.62;99024.25;7310822;19;129376;-38
2023/05/23 00:40:40;;;;;;;36.17;1.90;;;;;;;23.00;43.59;99029.81;7316281;19;129087;-39
2023/05/23 00:43:07;;;;;;;38.35;1.95;;;;;;;23.03;43.22;99042.59;7318597;19;130161;-38
2023/05/23 00:45:32;;;;;;;26.27;1.58;;;;;;;23.00;43.57;99040.31;7315720;19;129837;-38
2023/05/23 00:47:58;;;;;;;10.02;0.68;;;;;;;23.04;43.34;99046.84;7317242;19;129399;-38
2023/05/23 00:50:28;;;;;;;64.00;3.33;;;;;;;23.02;43.88;99044.41;7317627;19;129065;-39
2023/05/23 00:52:54;;;;;;;32.97;1.83;;;;;;;23.04;43.25;99052.09;7318089;19;129230;-38
2023/05/23 00:55:19;;;;;;;19.97;1.13;;;;;;;23.02;43.24;99040.97;7317042;19;129666;-39
2023/05/23 00:57:45;;;;;;;11.00;0.80;;;;;;;23.02;43.79;99043.59;7317598;19;129397;-38
2023/05/23 01:00:12;;;;;;;39.85;2.05;;;;;;;23.06;43.59;99044.91;7315814;19;129040;-39
2023/05/23 01:02:46;;;;;;;32.28;1.85;;;;;;;23.02;43.67;99035.75;7317232;19;129886;-38
2023/05/23 01:05:16;;;;;;;24.83;1.40;;;;;;;23.03;43.80;99024.25;7315085;19;129696;-37
2023/05/23 01:07:45;;;;;;;26.98;1.55;;;;;;;23.03;43.43;99003.28;7316944;19;129238;-38
2023/05/23 01:10:13;;;;;;;24.17;1.33;;;;;;;23.05;43.85;99003.94;7315727;19;129451;-39
2023/05/23 01:12:48;;;;;;;49.60;2.60;;;;;;;23.05;43.53;99002.16;7316214;19;130862;-39
2023/05/23 01:15:19;;;;;;;35.08;1.95;;;;;;;23.03;43.21;98993.63;7315622;19;130441;-38
2023/05/23 01:17:53;;;;;;;52.00;2.80;;;;;;;23.05;43.71;98985.59;7316707;19;129322;-38
2023/05/23 01:20:22;;;;;;;45.55;2.30;;;;;;;23.06;43.30;98981.97;7311548;19;130031;-38
2023/05/23 01:22:50;;;;;;;29.58;1.65;;;;;;;23.08;43.18;98980.00;7314046;19;130254;-37
2023/05/23 01:25:58;;;;;;;43.58;2.35;;;;;;;23.08;43.15;99011.47;7314709;19;130419;-37
2023/05/23 01:28:27;;;;;;;22.60;1.25;;;;;;;23.08;43.20;99011.47;7315824;19;129018;-37
2023/05/23 01:30:56;;;;;;;35.22;2.00;;;;;;;23.04;43.09;98999.66;7316933;19;129370;-40
2023/05/23 01:33:24;;;;;;;53.53;2.88;;;;;;;23.02;43.54;98997.22;7316817;19;129396;-39
2023/05/23 01:35:49;;;;;;;38.47;2.20;;;;;;;23.07;43.84;99000.16;7315414;19;130053;-39
2023/05/23 01:38:15;;;;;;;41.30;2.28;;;;;;;23.04;43.52;99010.97;7317084;19;129685;-38
2023/05/23 01:40:40;;;;;;;22.47;1.30;;;;;;;23.02;43.59;99023.44;7314397;19;129058;-38
2023/05/23 01:43:06;;;;;;;29.35;1.58;;;;;;;23.08;43.83;99027.22;7317308;19;129938;-38
2023/05/23 01:45:32;;;;;;;39.03;2.17;;;;;;;23.08;43.52;99024.59;7314916;19;129577;-40
2023/05/23 01:47:59;;;;;;;23.60;1.30;;;;;;;23.06;43.54;99035.25;7317236;19;129145;-37
2023/05/23 01:50:25;;;;;;;;;;;;;;;23.07;43.45;99041.31;7315466;19;128852;-39
2023/05/23 01:52:52;;;;;;;33.90;2.00;;;;;;;23.08;43.50;99037.69;7315979;19;130929;-38
2023/05/23 01:55:21;;;;;;;24.15;1.35;;;;;;;23.07;43.76;99036.88;7315528;19;130041;-38
2023/05/23 01:57:50;;;;;;;22.23;1.42;;;;;;;23.04;43.55;99031.97;7314902;19;129641;-38
2023/05/23 02:00:16;;;;;;;37.80;2.00;;;;;;;23.08;43.89;99032.44;7313598;19;129171;-38
2023/05/23 02:02:41;;;;;;;32.93;1.87;;;;;;;23.07;43.43;99036.88;7315869;19;129005;-38
2023/05/23 02:05:08;;;;;;;22.03;1.27;;;;;;;23.12;43.69;99039.03;7314915;19;131054;-37
2023/05/23 02:07:34;;;;;;;40.22;2.28;;;;;;;22.98;43.19;99009.03;7315550;19;129980;-38
2023/05/23 02:09:59;;;;;;;21.90;1.17;;;;;;;23.11;43.62;99021.63;7315048;19;129255;-38
2023/05/23 02:12:25;;;;;;;34.33;1.85;;;;;;;22.97;43.55;98998.69;7316387;19;129044;-39
2023/05/23 02:14:53;;;;;;;23.87;1.33;;;;;;;23.03;43.47;99009.34;7314721;19;129581;-39
2023/05/23 02:17:20;;;;;;;15.63;0.95;;;;;;;23.11;42.92;99011.16;7315781;19;129138;-39
2023/05/23 02:19:46;;;;;;;16.23;1.13;;;;;;;22.99;43.81;98991.50;7314982;19;129224;-38
2023/05/23 02:22:12;;;;;;;29.98;1.58;;;;;;;23.10;43.16;99005.09;7315031;19;129545;-37
2023/05/23 02:24:37;;;;;;;21.60;1.37;;;;;;;23.04;43.15;98989.19;7314901;19;129375;-37
2023/05/23 02:27:03;;;;;;;23.17;1.33;;;;;;;23.08;43.79;98991.31;7315411;19;128892;-38
2023/05/23 02:29:29;;;;;;;55.90;3.03;;;;;;;23.10;43.10;98993.78;7315432;19;129730;-38
2023/05/23 02:31:54;;;;;;;30.23;1.77;;;;;;;23.10;44.19;98999.03;7314662;19;131084;-38
2023/05/23 02:34:19;;;;;;;23.88;1.33;;;;;;;23.09;43.46;98981.63;7315256;19;129553;-38
2023/05/23 02:36:45;;;;;;;39.72;2.30;;;;;;;23.12;43.23;98976.88;7312143;19;128887;-38
2023/05/23 02:39:10;;;;;;;20.87;1.23;;;;;;;23.11;43.38;98969.19;7314386;19;129100;-38
2023/05/23 02:41:36;;;;;;;29.20;1.73;;;;;;;23.15;43.84;98966.06;7312927;19;129004;-37
2023/05/23 02:44:01;;;;;;;34.05;2.00;;;;;;;23.10;43.64;98967.56;7314821;19;130384;-38
2023/05/23 02:46:27;;;;;;;11.83;0.90;;;;;;;23.10;43.37;98962.31;7312547;19;130246;-38
2023/05/23 02:48:52;;;;;;;39.80;2.25;;;;;;;23.10;43.49;98957.06;7315047;19;129439;-39
2023/05/23 02:51:17;;;;;;;24.50;1.63;;;;;;;23.10;43.43;98959.69;7315110;19;129529;-38
2023/05/23 02:53:43;;;;;;;30.83;1.87;;;;;;;23.12;43.17;98955.13;7313462;19;130220;-38
2023/05/23 02:56:08;;;;;;;30.45;1.65;;;;;;;23.07;43.37;98946.91;7312674;19;130275;-39
2023/05/23 02:58:34;;;;;;;34.07;1.83;;;;;;;23.08;43.20;98944.13;7314167;19;128860;-39
2023/05/23 03:01:03;;;;;;;24.88;1.35;;;;;;;23.10;43.02;98941.34;7312155;19;129429;-39
2023/05/23 03:03:30;;;;;;;25.38;1.55;;;;;;;23.09;43.49;98931.81;7311987;19;129044;-38
2023/05/23 03:05:56;;;;;;;24.58;1.40;;;;;;;23.12;43.38;98921.03;7310962;19;128995;-38
2023/05/23 03:08:22;;;;;;;38.67;1.98;;;;;;;23.10;43.64;98917.75;7313689;19;129087;-39
2023/05/23 03:10:48;;;;;;;25.10;1.58;;;;;;;23.13;43.22;98923.47;7314872;19;130428;-38
2023/05/23 03:13:13;;;;;;;21.87;1.30;;;;;;;23.12;43.17;98928.91;7312347;19;129637;-38
2023/05/23 03:15:38;;;;;;;45.47;2.50;;;;;;;23.11;43.16;98932.47;7312421;19;128950;-39
2023/05/23 03:18:04;;;;;;;33.10;1.83;;;;;;;23.12;43.38;98928.91;7313434;19;129616;-37
2023/05/23 03:20:29;;;;;;;27.67;1.55;;;;;;;23.13;43.64;98933.13;7311957;19;131029;-37
2023/05/23 03:22:55;;;;;;;1.47;0.30;;;;;;;23.13;43.64;98930.53;7312428;19;130283;-38
2023/05/23 03:25:20;;;;;;;47.80;2.43;;;;;;;23.04;43.54;98910.53;7311626;19;129183;-38
2023/05/23 03:27:45;;;;;;;48.75;2.70;;;;;;;23.13;42.99;98920.03;7312212;19;129029;-39
2023/05/23 03:30:11;;;;;;;20.40;1.25;;;;;;;23.14;43.59;98919.03;7312861;19;130178;-38
2023/05/23 03:32:37;;;;;;;34.80;1.87;;;;;;;23.13;43.60;98914.78;7312064;19;131285;-38
2023/05/23 03:35:02;;;;;;;29.97;1.80;;;;;;;23.15;43.64;98915.44;7311936;19;129073;-37
2023/05/23 03:37:27;;;;;;;48.63;2.83;;;;;;;23.13;43.38;98906.91;7313857;19;129178;-39
2023/05/23 03:39:53;;;;;;;21.92;1.25;;;;;;;23.18;43.68;98909.88;7311090;19;130227;-38
2023/05/23 03:42:18;;;;;;;22.13;1.38;;;;;;;23.14;43.39;98900.69;7312635;19;129789;-37
2023/05/23 03:44:43;;;;;;;42.37;2.23;;;;;;;23.14;43.08;98905.94;7312305;19;129112;-38
2023/05/23 03:47:09;;;;;;;41.20;2.38;;;;;;;23.15;43.08;98907.59;7312029;19;129043;-36
2023/05/23 03:49:34;;;;;;;30.02;1.73;;;;;;;23.11;43.32;98906.25;7311564;19;129933;-39
2023/05/23 03:51:59;;;;;;;27.42;1.50;;;;;;;23.13;43.37;98905.13;7312797;19;130361;-37
2023/05/23 03:54:25;;;;;;;67.93;3.47;;;;;;;23.12;43.83;98910.53;7311040;19;129102;-37
2023/05/23 03:56:50;;;;;;;25.60;1.48;;;;;;;23.15;43.69;98923.31;7310418;19;129312;-36
2023/05/23 03:59:16;;;;;;;20.17;1.25;;;;;;;23.13;43.05;98920.84;7310638;19;129975;-40
2023/05/23 04:01:41;;;;;;;43.80;2.53;;;;;;;23.16;43.65;98920.53;7308018;19;130006;-36
2023/05/23 04:04:06;;;;;;;33.97;1.98;;;;;;;23.20;42.98;98929.69;7312142;19;129141;-36
2023/05/23 04:06:32;;;;;;;5.70;0.53;;;;;;;23.17;43.29;98926.59;7310018;19;129010;-39
2023/05/23 04:08:57;;;;;;;25.35;1.55;;;;;;;23.16;43.55;98935.44;7311434;19;130267;-39
2023/05/23 04:11:23;;;;;;;42.17;2.25;;;;;;;23.16;43.38;98946.75;7308320;19;129588;-37
2023/05/23 04:13:48;;;;;;;39.67;2.70;;;;;;;23.15;42.94;98942.47;7312028;19;128937;-39
2023/05/23 04:16:14;;;;;;;40.53;2.40;;;;;;;23.18;43.26;98949.19;7313726;19;129620;-39
2023/05/23 04:18:39;;;;;;;69.88;4.07;;;;;;;23.17;43.11;98947.56;7317859;19;130176;-38
2023/05/23 04:21:05;;;;;;;39.27;2.00;;;;;;;23.18;42.96;98946.56;7316821;19;129639;-39
2023/05/23 04:23:30;;;;;;;35.63;1.90;;;;;;;23.17;42.84;98947.56;7319403;19;129268;-39
2023/05/23 04:25:59;;;;;;;19.88;1.35;;;;;;;23.15;43.51;98955.56;7312644;19;128977;-36
2023/05/23 04:28:25;;;;;;;19.13;1.10;;;;;;;23.08;43.66;98951.16;7318965;19;130303;-38
2023/05/23 04:30:52;;;;;;;44.08;2.42;;;;;;;23.17;43.43;98973.78;7314503;19;130077;-37
2023/05/23 04:33:17;;;;;;;;;;;;;;;23.15;43.10;98971.31;7320020;19;128934;-39
2023/05/23 04:35:43;;;;;;;140.85;7.97;;;;;;;23.15;43.62;98971.31;7313936;19;130479;-38
2023/05/23 04:38:08;;;;;;;8.88;0.65;;;;;;;23.17;42.90;98968.56;7318203;19;130129;-38
2023/05/23 04:40:34;;;;;;;81.80;4.60;;;;;;;23.16;42.98;98975.59;7315289;19;130511;-36
2023/05/23 04:43:00;;;;;;;33.95;2.00;;;;;;;23.15;43.25;98970.50;7316348;19;130136;-38
2023/05/23 04:45:25;;;;;;;34.67;1.93;;;;;;;23.18;43.10;98971.00;7310666;19;130690;-39
2023/05/23 04:47:53;;;;;;;48.23;2.77;;;;;;;23.17;42.87;98971.19;7316068;19;130138;-37
2023/05/23 04:50:20;;;;;;;80.90;4.32;;;;;;;23.20;42.87;98963.78;7314003;19;129629;-37
2023/05/23 04:52:46;;;;;;;14.00;0.95;;;;;;;23.16;43.45;98966.91;7319330;19;129134;-38
2023/05/23 04:55:11;;;;;;;22.88;1.38;;;;;;;23.20;43.52;98971.63;7313064;19;130205;-39
2023/05/23 04:57:37;;;;;;;35.50;2.07;;;;;;;23.20;43.54;98968.22;7316781;19;130623;-38
2023/05/23 05:00:09;;;;;;;37.10;1.97;;;;;;;23.16;43.21;98964.28;7317291;19;129641;-38
2023/05/23 05:02:37;;;;;;;37.90;2.40;;;;;;;23.12;43.01;98969.03;7316613;19;128612;-39
2023/05/23 05:05:03;;;;;;;25.27;1.45;;;;;;;23.20;43.47;98971.63;7310902;19;129197;-38
2023/05/23 05:07:29;;;;;;;25.52;1.45;;;;;;;23.16;42.80;98972.97;7314028;19;130668;-39
2023/05/23 05:09:54;;;;;;;83.10;4.60;;;;;;;23.19;43.01;98977.06;7311870;19;129220;-40
2023/05/23 05:12:20;;;;;;;31.83;1.90;;;;;;;23.19;42.93;98977.06;7315883;19;129910;-39
2023/05/23 05:14:45;;;;;;;27.98;1.42;;;;;;;23.19;43.02;98980.50;7312623;19;129614;-39
2023/05/23 05:17:11;;;;;;;26.45;1.52;;;;;;;23.16;42.99;98978.22;7316779;19;129177;-37
2023/05/23 05:19:37;;;;;;;38.50;2.13;;;;;;;23.20;43.12;98981.34;7315614;19;129710;-37
2023/05/23 05:22:02;;;;;;;25.03;1.37;;;;;;;23.21;43.35;98980.34;7313104;19;129084;-37
2023/05/23 05:24:28;;;;;;;9.53;0.70;;;;;;;23.21;43.55;98980.34;7315537;19;128947;-37
2023/05/23 05:26:54;;;;;;;28.75;1.67;;;;;;;23.18;42.80;98983.28;7313031;19;130121;-37
2023/05/23 05:29:19;;;;;;;40.13;2.30;;;;;;;23.21;43.51;98980.34;7314194;19;129434;-37
2023/05/23 05:31:45;;;;;;;48.05;2.53;;;;;;;23.21;43.19;98985.56;7314124;19;129341;-36
2023/05/23 05:34:11;;;;;;;62.97;3.23;;;;;;;23.21;43.21;98980.34;7311218;19;129278;-37
2023/05/23 05:36:37;;;;;;;39.27;1.93;;;;;;;23.21;43.59;98985.56;7314474;19;130278;-36
2023/05/23 05:39:03;;;;;;;53.47;2.90;;;;;;;23.21;43.38;98975.91;7316856;19;130303;-36
2023/05/23 05:41:28;;;;;;;39.85;2.03;;;;;;;23.21;42.94;98981.16;7315545;19;130379;-38
2023/05/23 05:43:53;;;;;;;66.80;3.97;;;;;;;23.23;42.88;98981.00;7315917;19;128996;-38
2023/05/23 05:46:19;;;;;;;41.53;2.10;;;;;;;23.25;43.65;98981.66;7313244;19;130644;-38
2023/05/23 05:48:45;;;;;;;29.53;1.63;;;;;;;23.24;43.47;98985.25;7316577;19;129245;-37
2023/05/23 05:51:10;;;;;;;26.63;1.48;;;;;;;23.22;43.31;98974.13;7317254;19;129453;-38
2023/05/23 05:53:35;;;;;;;27.47;1.60;;;;;;;23.22;43.08;98982.00;7315884;19;129109;-37
2023/05/23 05:56:01;;;;;;;40.88;2.05;;;;;;;23.23;43.10;98981.00;7314321;19;130103;-38
2023/05/23 05:58:26;;;;;;;25.60;1.50;;;;;;;23.23;43.00;98989.69;7316262;19;129282;-37
2023/05/23 06:00:52;;;;;;;28.08;1.55;;;;;;;23.20;42.92;98989.19;7315352;19;129060;-37
2023/05/23 06:03:18;;;;;;;27.87;1.67;;;;;;;23.19;43.17;98998.84;7315573;19;129357;-37
2023/05/23 06:05:43;;;;;;;28.70;1.55;;;;;;;23.22;43.07;99001.16;7314088;19;129795;-36
2023/05/23 06:08:09;;;;;;;22.70;1.33;;;;;;;23.23;43.50;98999.34;7317404;19;130435;-37
2023/05/23 06:10:36;;;;;;;21.58;1.35;;;;;;;23.22;43.88;99003.78;7316706;19;128797;-36
2023/05/23 06:13:01;;;;;;;30.60;1.70;;;;;;;23.21;43.63;99002.16;7316055;19;129114;-36
2023/05/23 06:15:27;;;;;;;56.47;3.15;;;;;;;23.09;43.74;98984.25;7313849;19;130060;-37
2023/05/23 06:17:52;;;;;;;6.73;0.43;;;;;;;23.20;43.13;99004.94;7316476;19;130303;-37
2023/05/23 06:20:17;;;;;;;28.98;1.60;;;;;;;23.20;43.42;99007.56;7315594;19;128976;-37
2023/05/23 06:22:43;;;;;;;33.63;1.77;;;;;;;23.22;43.16;99008.22;7316091;19;129314;-36
2023/05/23 06:25:08;;;;;;;30.35;1.67;;;;;;;23.11;43.79;98987.53;7315069;19;130110;-37
2023/05/23 06:27:34;;;;;;;26.47;1.67;;;;;;;23.20;43.09;99010.19;7315482;19;129188;-37
2023/05/23 06:29:59;;;;;;;38.67;2.15;;;;;;;23.23;43.44;99005.44;7316358;19;129898;-36
2023/05/23 06:32:24;;;;;;;27.13;1.52;;;;;;;23.21;43.46;99001.31;7316209;19;128910;-35
2023/05/23 06:34:50;;;;;;;34.85;1.77;;;;;;;23.24;43.71;99011.47;7315209;19;129279;-38
2023/05/23 06:37:16;;;;;;;22.83;1.40;;;;;;;23.23;43.09;99015.91;7312989;19;129210;-36
2023/05/23 06:39:42;;;;;;;40.92;2.42;;;;;;;23.23;43.01;99015.09;7315105;19;128825;-37
2023/05/23 06:42:07;;;;;;;39.92;2.10;;;;;;;23.21;43.71;99017.06;7312027;19;128965;-36
2023/05/23 06:44:33;;;;;;;31.47;1.93;;;;;;;23.22;43.08;99023.94;7314543;19;130456;-37
2023/05/23 06:46:58;;;;;;;22.47;1.30;;;;;;;23.23;42.99;99015.09;7311463;19;130274;-37
2023/05/23 06:49:24;;;;;;;22.30;1.35;;;;;;;23.21;43.38;99006.56;7314909;19;129373;-37
2023/05/23 06:51:50;;;;;;;39.27;2.10;;;;;;;23.24;43.21;99017.53;7314100;19;128888;-37
2023/05/23 06:54:16;;;;;;;23.80;1.47;;;;;;;23.22;43.41;99021.34;7314607;19;129028;-37
2023/05/23 06:56:41;;;;;;;23.70;1.38;;;;;;;23.17;43.73;99015.75;7311988;19;129584;-37
2023/05/23 06:59:06;;;;;;;17.23;1.23;;;;;;;23.24;43.74;99016.72;7314358;19;129482;-37
2023/05/23 07:01:32;;;;;;;41.80;2.17;;;;;;;23.24;43.12;99014.91;7312456;19;128937;-37
2023/05/23 07:03:57;;;;;;;60.35;3.53;;;;;;;23.22;43.74;99010.84;7314556;19;129882;-37
2023/05/23 07:06:23;;;;;;;21.88;1.25;;;;;;;23.26;43.09;99020.00;7311774;19;130235;-36
2023/05/23 07:08:48;;;;;;;33.72;1.83;;;;;;;23.25;43.86;99013.13;7313795;19;129017;-35
2023/05/23 07:11:13;;;;;;;40.03;2.10;;;;;;;23.22;43.71;99021.34;7314187;19;130030;-37
2023/05/23 07:13:39;;;;;;;32.03;1.88;;;;;;;23.23;43.57;99020.34;7313213;19;129375;-37
2023/05/23 07:16:04;;;;;;;0.40;0.40;;;;;;;23.25;43.31;99026.25;7311579;19;130325;-37
2023/05/23 07:18:30;;;;;;;36.07;1.87;;;;;;;23.25;42.98;99024.41;7314216;19;129337;-36
2023/05/23 07:20:55;;;;;;;28.73;1.80;;;;;;;23.24;42.91;99030.66;7312662;19;129224;-36
2023/05/23 07:23:23;;;;;;;20.20;1.33;;;;;;;23.25;42.96;99028.88;7313755;19;130050;-37
2023/05/23 07:25:48;;;;;;;24.33;1.42;;;;;;;23.26;43.63;99030.50;7311605;19;130797;-36
2023/05/23 07:28:14;;;;;;;44.92;2.47;;;;;;;23.16;43.68;99014.09;7312273;19;128838;-37
2023/05/23 07:30:40;;;;;;;29.80;1.60;;;;;;;23.27;42.88;99031.34;7313824;19;128915;-37
2023/05/23 07:33:06;;;;;;;;;;;;;;;23.24;43.23;99032.44;7312102;19;130082;-37
2023/05/23 07:35:31;;;;;;;33.30;2.00;;;;;;;23.20;43.40;99031.97;7311516;19;129149;-38
2023/05/23 07:37:56;;;;;;;44.03;2.23;;;;;;;23.25;43.03;99026.25;7313185;19;129093;-37
2023/05/23 07:40:22;;;;;;;24.00;1.35;;;;;;;23.24;43.26;99032.44;7313137;19;128943;-38
2023/05/23 07:42:47;;;;;;;25.65;1.60;;;;;;;23.22;43.18;99027.38;7310713;19;132522;-38
2023/05/23 07:45:13;;;;;;;31.27;1.75;;;;;;;23.24;43.63;99032.44;7311242;19;130215;-37
2023/05/23 07:47:39;;;;;;;45.67;2.53;;;;;;;23.25;43.14;99026.25;7313180;19;128799;-38
2023/05/23 07:50:05;;;;;;;22.20;1.27;;;;;;;23.28;43.67;99023.31;7320252;19;128760;-37
2023/05/23 07:52:31;;;;;;;15.10;0.93;;;;;;;23.27;43.59;99019.03;7319426;19;129048;-37
2023/05/23 07:54:57;;;;;;;28.83;1.65;;;;;;;23.25;43.79;99024.41;7318867;19;130327;-36
2023/05/23 07:57:26;;;;;;;29.73;1.83;;;;;;;23.24;43.36;99038.53;7319091;19;128729;-38
2023/05/23 07:59:52;;;;;;;27.88;1.60;;;;;;;23.25;43.61;99034.13;7319699;19;128872;-36
2023/05/23 08:02:18;;;;;;;15.10;1.03;;;;;;;23.17;43.38;99015.75;7317740;19;129026;-37
2023/05/23 08:04:44;;;;;;;23.02;1.45;;;;;;;23.24;43.37;99032.44;7319227;19;129210;-37
2023/05/23 08:07:10;;;;;;;37.97;2.00;;;;;;;23.19;43.43;99013.75;7319532;19;129258;-37
2023/05/23 08:09:36;;;;;;;22.20;1.35;;;;;;;23.18;43.43;99012.13;7320960;19;129725;-37
2023/05/23 08:12:01;;;;;;;29.83;1.83;;;;;;;23.27;43.67;99032.16;7319597;19;130199;-36
2023/05/23 08:14:27;;;;;;;27.95;1.55;;;;;;;23.27;43.66;99032.16;7319227;19;130516;-37
2023/05/23 08:16:52;;;;;;;29.77;1.73;;;;;;;23.28;43.43;99046.94;7317773;19;128998;-37
2023/05/23 08:19:17;;;;;;;23.85;1.40;;;;;;;23.29;43.06;99035.44;7319603;19;129034;-37
2023/05/23 08:21:43;;;;;;;28.73;1.70;;;;;;;23.26;43.33;99040.97;7317698;19;130112;-38
2023/05/23 08:24:08;;;;;;;30.27;1.65;;;;;;;23.29;43.21;99048.56;7318710;19;129183;-38
2023/05/23 08:26:34;;;;;;;43.72;2.45;;;;;;;23.30;43.05;99042.34;7317155;19;129000;-38
2023/05/23 08:29:03;;;;;;;22.70;1.35;;;;;;;23.30;43.23;99042.34;7319938;19;129464;-37
2023/05/23 08:31:29;;;;;;;36.90;2.08;;;;;;;23.28;43.46;99048.72;7317789;19;130194;-37
2023/05/23 08:33:55;;;;;;;69.32;4.00;;;;;;;23.28;42.94;99051.34;7317190;19;129215;-36
2023/05/23 08:36:20;;;;;;;55.60;3.00;;;;;;;23.31;43.15;99059.72;7317589;19;129544;-38
2023/05/23 08:38:46;;;;;;;20.77;1.37;;;;;;;23.34;43.21;99054.13;7317848;19;128954;-38
2023/05/23 08:41:17;;;;;;;40.13;2.25;;;;;;;23.29;43.68;99058.25;7316950;19;129123;-36
2023/05/23 08:43:43;;;;;;;33.03;1.98;;;;;;;23.32;43.64;99056.09;7316509;19;129285;-37
2023/05/23 08:46:08;;;;;;;39.17;2.25;;;;;;;23.26;43.08;99051.47;7316614;19;128871;-37
2023/05/23 08:48:37;;;;;;;25.73;1.48;;;;;;;23.31;42.94;99059.72;7317124;19;129233;-38
2023/05/23 08:51:03;;;;;;;31.95;1.77;;;;;;;23.27;43.25;99061.00;7317664;19;129620;-35
2023/05/23 08:53:31;;;;;;;54.70;2.93;;;;;;;23.31;43.29;99064.13;7316293;19;129245;-38
2023/05/23 08:56:01;;;;;;;37.83;1.98;;;;;;;23.27;42.94;99053.13;7316362;19;129388;-37
2023/05/23 08:58:33;;;;;;;37.25;2.13;;;;;;;23.32;43.55;99060.53;7317556;19;128807;-37
2023/05/23 09:00:58;;;;;;;23.58;1.38;;;;;;;23.32;42.98;99066.59;7315832;19;130240;-37
2023/05/23 09:03:27;;;;;;;22.40;1.33;;;;;;;23.32;43.50;99069.19;7316031;19;130339;-38
2023/05/23 09:05:56;;;;;;;28.13;1.63;;;;;;;23.32;43.22;99061.34;7315036;19;129271;-37
2023/05/23 09:08:23;;;;;;;32.20;1.88;;;;;;;23.27;43.25;99063.63;7318295;19;129012;-36
2023/05/23 09:10:49;;;;;;;23.75;1.45;;;;;;;23.30;43.65;99065.13;7317589;19;129054;-38
2023/05/23 09:13:16;;;;;;;0.30;0.30;;;;;;;23.19;43.27;99058.34;7316686;19;130843;-36
2023/05/23 09:16:02;;;;;;;54.10;2.88;;;;;;;23.28;43.63;99081.03;7312383;19;129134;-37
2023/05/23 09:18:36;;;;;;;44.60;2.45;;;;;;;23.32;43.49;99079.69;7317827;19;129161;-36
2023/05/23 09:21:02;;;;;;;15.27;1.20;;;;;;;23.31;43.16;99075.44;7315101;19;130141;-38
2023/05/23 09:23:32;;;;;;;51.17;3.03;;;;;;;23.23;43.20;99057.06;7315967;19;129505;-38
2023/05/23 09:26:04;;;;;;;25.45;1.50;;;;;;;23.20;43.00;99073.13;7315518;19;129043;-38
2023/05/23 09:28:32;;;;;;;26.65;1.55;;;;;;;23.36;43.09;99090.69;7317151;19;128903;-37
2023/05/23 09:31:02;;;;;;;46.63;2.45;;;;;;;23.22;43.14;99068.53;7316481;19;129535;-37
2023/05/23 09:33:44;;;;;;;31.35;1.77;;;;;;;23.32;42.78;99092.81;7317150;19;130140;-36
2023/05/23 09:36:09;;;;;;;25.70;1.50;;;;;;;23.32;43.31;99098.06;7316130;19;130893;-37
2023/05/23 09:38:39;;;;;;;12.73;0.95;;;;;;;23.33;43.46;99102.34;7315985;19;128752;-36
2023/05/23 09:41:05;;;;;;;25.33;1.42;;;;;;;23.21;43.44;99074.75;7315295;19;130073;-36
2023/05/23 09:43:31;;;;;;;46.13;2.53;;;;;;;23.33;43.60;99091.84;7316582;19;130322;-37
2023/05/23 09:46:09;;;;;;;19.73;1.25;;;;;;;23.32;42.85;99089.38;7315483;19;129633;-37
2023/05/23 09:48:35;;;;;;;8.20;0.70;;;;;;;23.24;43.60;99079.66;7315714;19;129669;-37
2023/05/23 09:51:04;;;;;;;44.20;2.60;;;;;;;23.33;43.73;99099.72;7315577;19;129179;-37
2023/05/23 09:53:29;;;;;;;32.78;1.85;;;;;;;23.32;42.82;99084.94;7315970;19;130384;-37
2023/05/23 09:55:58;;;;;;;34.05;1.95;;;;;;;23.36;42.88;99099.38;7315002;19;131519;-37
2023/05/23 09:58:26;;;;;;;23.95;1.45;;;;;;;23.33;42.96;99094.47;7316331;19;128894;-36
2023/05/23 10:00:55;;;;;;;25.98;1.75;;;;;;;23.35;42.91;99108.25;7315736;19;130414;-37
2023/05/23 10:03:29;;;;;;;37.63;2.17;;;;;;;23.35;43.47;99113.50;7317002;19;130366;-37
2023/05/23 10:06:00;;;;;;;54.10;2.97;;;;;;;23.27;43.33;99100.34;7312978;19;128912;-37
2023/05/23 10:08:35;;;;;;;50.13;2.78;;;;;;;23.25;42.84;99095.22;7316317;19;129141;-36
2023/05/23 10:11:49;;;;;;;25.55;1.60;;;;;;;23.33;42.90;99122.50;7316495;19;130105;-36
2023/05/23 10:14:15;;;;;;;23.73;1.48;;;;;;;23.34;43.59;99122.34;7315039;19;129637;-38
2023/05/23 10:17:01;;;;;;;25.25;1.65;;;;;;;23.31;43.27;99114.78;7314996;19;130716;-36
2023/05/23 10:19:34;;;;;;;20.75;1.30;;;;;;;23.36;42.78;99122.16;7315792;19;131383;-38
2023/05/23 10:22:02;;;;;;;24.05;1.50;;;;;;;23.36;43.16;99124.78;7314832;19;130538;-38
2023/05/23 10:24:28;;;;;;;43.25;2.70;;;;;;;23.34;43.09;99127.56;7313485;19;129168;-37
2023/05/23 10:26:57;;;;;;;44.10;2.47;;;;;;;23.33;43.68;99112.84;7312516;19;128959;-36
2023/05/23 10:29:23;;;;;;;34.22;2.03;;;;;;;23.35;43.28;99128.41;7315800;19;129141;-37
2023/05/23 10:31:50;;;;;;;24.02;1.48;;;;;;;23.33;42.90;99125.13;7315462;19;130085;-37
2023/05/23 10:34:23;;;;;;;23.60;1.63;;;;;;;23.35;43.23;99131.03;7314607;19;130329;-38
2023/05/23 10:36:58;;;;;;;23.70;1.58;;;;;;;23.33;43.49;99136.44;7311482;19;129449;-37
2023/05/23 10:39:43;;;;;;;42.58;2.35;;;;;;;23.32;43.60;99133.97;7315445;19;129356;-36
2023/05/23 10:42:44;;;;;;;23.50;1.58;;;;;;;23.32;43.42;99140.03;7313598;19;130311;-37
2023/05/23 10:45:20;;;;;;;28.98;1.83;;;;;;;23.32;42.95;99134.78;7310714;19;130724;-37
2023/05/23 10:47:51;;;;;;;29.83;1.73;;;;;;;23.34;43.10;99132.81;7315391;19;129055;-37
2023/05/23 10:50:31;;;;;;;29.50;1.85;;;;;;;23.36;43.23;99143.16;7316185;19;129746;-37
2023/05/23 10:52:59;;;;;;;42.50;2.55;;;;;;;23.34;42.65;99148.56;7315491;19;130311;-37
2023/05/23 10:55:25;;;;;;;4.50;0.55;;;;;;;23.32;43.51;99140.03;7312628;19;130206;-36
2023/05/23 10:58:17;;;;;;;24.02;1.42;;;;;;;23.26;43.03;99130.16;7314834;19;128723;-37
2023/05/23 11:00:56;;;;;;;15.98;1.45;;;;;;;23.33;43.47;99141.69;7312627;19;128874;-37
2023/05/23 11:03:36;;;;;;;33.78;2.03;;;;;;;23.39;43.38;99141.03;7314296;19;129336;-36
2023/05/23 11:06:03;;;;;;;37.40;2.05;;;;;;;23.27;42.94;99125.78;7311029;19;130901;-36
2023/05/23 11:08:41;;;;;;;30.52;1.85;;;;;;;23.37;43.13;99145.59;7314698;19;129252;-37
2023/05/23 11:11:06;;;;;;;;;;;;;;;23.28;43.52;99154.47;7315099;19;129786;-36
2023/05/23 11:13:59;;;;;;;24.70;1.50;;;;;;;23.32;43.51;99145.28;7314586;19;131013;-38
2023/05/23 11:16:40;;;;;;;13.95;1.10;;;;;;;23.35;43.32;99147.59;7311399;19;131234;-38
2023/05/23 11:19:18;;;;;;;25.10;1.58;;;;;;;23.33;42.86;99146.94;7314029;19;128972;-36
2023/05/23 11:21:44;;;;;;;;;;;;;;;23.31;42.96;99154.13;7312620;19;128844;-37